Terminal Aerodrome Forecast
Issued by NWS

Home | Current Version | Previous Version | Text Only | Print | Product List | Glossary On
Versions: 1 2 3 4 5 6 7 8 9 10 11 12 13 14 15 16 17 18 19 20 21 22 23 24 25 26 27 28 29 30 31
000
FTUS41 KBGM 222300 RRA
TAFELM
TAF
KELM 222341Z 2300/2324 34010KT P6SM OVC012
      TEMPO 2302/2306 5SM -SHRA BR
     FM231500 34012G18KT P6SM OVC015
     FM232100 34010KT P6SM OVC035=

USA.gov is the U.S. government's official web portal to all federal, state and local government web resources and services.